Terminal Aerodrome Forecast
Issued by NWS

Home | Current Version | Previous Version | Text Only | Print | Product List | Glossary On
Versions: 1 2 3 4 5 6 7 8 9 10 11 12 13 14 15
000
FTUS41 KCAR 281731
TAFBHB
TAF
KBHB 281731Z 2818/2918 20016KT P6SM SKC
     FM282100 22009KT P6SM VCTS BKN110CB
     FM290200 26006KT P6SM BKN010
     FM290400 31005KT P6SM BKN003
     FM290900 36006KT P6SM SCT008
      AMD LTD TO CLD VIS AND WIND=

USA.gov is the U.S. government's official web portal to all federal, state and local government web resources and services.